Time;durP1;ratioP1;P1;durP2;ratioP2;P2;SDS_P1;SDS_P2;PMS_P1;PMS_P2;Temp;Humidity;BMP_temperature;BMP_pressure;BME280_temperature;BME280_humidity;BME280_pressure;Samples;Min_cycle;Max_cycle;Signal;HPM_P1;HPM_P2
2021/12/30 00:01:16;;;;;;;2.17;0.60;;;12.90;53.80;;;;;;5068106;28;20119;-71
2021/12/30 00:03:47;;;;;;;0.95;0.60;;;13.00;52.40;;;;;;5067200;28;20067;-72
2021/12/30 00:06:17;;;;;;;1.40;0.95;;;13.10;50.50;;;;;;5068714;28;20064;-70
2021/12/30 00:08:45;;;;;;;1.38;0.80;;;13.10;48.20;;;;;;5072523;28;20041;-71
2021/12/30 00:11:13;;;;;;;2.05;0.60;;;13.20;48.20;;;;;;5075166;28;20469;-71
2021/12/30 00:13:45;;;;;;;0.75;0.52;;;13.20;47.40;;;;;;5077958;28;20526;-70
2021/12/30 00:16:13;;;;;;;2.33;0.60;;;13.10;47.10;;;;;;5081404;28;20040;-70
2021/12/30 00:18:42;;;;;;;2.08;0.75;;;13.10;48.10;;;;;;5065610;28;20075;-70
2021/12/30 00:21:12;;;;;;;1.27;0.68;;;13.10;47.00;;;;;;5077866;28;20046;-71
2021/12/30 00:23:40;;;;;;;1.25;0.70;;;13.00;48.00;;;;;;5066796;28;20090;-72
2021/12/30 00:26:09;;;;;;;1.10;0.65;;;13.00;48.00;;;;;;5046126;28;20132;-71
2021/12/30 00:28:37;;;;;;;1.58;0.60;;;13.00;48.00;;;;;;5063464;28;20049;-71
2021/12/30 00:31:05;;;;;;;1.30;0.77;;;13.10;46.90;;;;;;5064015;28;20037;-70
2021/12/30 00:33:35;;;;;;;1.45;0.80;;;13.10;45.50;;;;;;5067594;28;20405;-71
2021/12/30 00:36:04;;;;;;;4.78;0.82;;;13.10;44.50;;;;;;5064239;28;20157;-71
2021/12/30 00:38:33;;;;;;;2.45;0.70;;;13.10;43.70;;;;;;5064228;28;20048;-71
2021/12/30 00:41:02;;;;;;;2.33;0.70;;;13.20;42.00;;;;;;5061848;28;20132;-71
2021/12/30 00:43:30;;;;;;;2.53;1.15;;;13.20;42.40;;;;;;5066757;28;20044;-71
2021/12/30 00:45:58;;;;;;;1.80;0.80;;;13.10;41.90;;;;;;5065870;28;20041;-71
2021/12/30 00:48:27;;;;;;;1.50;0.85;;;13.10;41.70;;;;;;5074301;28;20547;-71
2021/12/30 00:50:56;;;;;;;2.00;0.82;;;13.20;41.00;;;;;;5064221;28;20131;-71
2021/12/30 00:53:24;;;;;;;3.53;0.80;;;13.10;41.00;;;;;;5065081;28;20044;-71
2021/12/30 00:55:53;;;;;;;2.15;0.90;;;13.10;42.30;;;;;;5063618;28;20049;-71
2021/12/30 00:58:22;;;;;;;1.33;1.02;;;13.00;42.70;;;;;;5064277;28;20045;-71
2021/12/30 01:00:51;;;;;;;4.13;1.17;;;12.90;43.10;;;;;;5063245;28;20578;-71
2021/12/30 01:03:21;;;;;;;1.83;0.90;;;12.90;42.50;;;;;;5066063;28;20040;-71
2021/12/30 01:05:49;;;;;;;3.83;0.80;;;12.90;42.30;;;;;;5064571;28;20060;-71
2021/12/30 01:08:17;;;;;;;1.17;0.65;;;12.90;42.20;;;;;;5063353;28;20071;-71
2021/12/30 01:10:45;;;;;;;1.25;0.90;;;12.90;42.20;;;;;;5061531;28;20090;-71
2021/12/30 01:13:20;;;;;;;3.00;0.80;;;12.90;42.10;;;;;;5073106;28;20590;-70
2021/12/30 01:15:57;;;;;;;4.25;0.90;;;12.90;41.90;;;;;;5056326;28;20083;-71
2021/12/30 01:18:37;;;;;;;1.75;0.63;;;12.90;41.60;;;;;;5052731;28;20044;-71
2021/12/30 01:21:07;;;;;;;1.15;0.80;;;12.90;41.60;;;;;;5072926;28;20544;-71
2021/12/30 01:23:36;;;;;;;1.85;0.80;;;13.00;40.00;;;;;;5052431;28;20048;-71
2021/12/30 01:26:06;;;;;;;3.92;0.93;;;12.90;40.40;;;;;;5065404;28;20040;-71
2021/12/30 01:28:35;;;;;;;1.60;0.80;;;12.90;40.60;;;;;;5060668;28;20084;-71
2021/12/30 01:31:05;;;;;;;2.03;0.70;;;12.80;41.10;;;;;;5091588;27;20135;-71
2021/12/30 01:33:33;;;;;;;2.22;0.80;;;12.90;40.40;;;;;;5064856;28;20044;-71
2021/12/30 01:36:02;;;;;;;1.67;0.80;;;12.80;41.00;;;;;;5062874;28;20033;-71
2021/12/30 01:38:30;;;;;;;2.38;0.90;;;12.80;42.40;;;;;;5062874;28;20043;-71
2021/12/30 01:41:01;;;;;;;3.33;0.88;;;12.90;41.70;;;;;;5069671;28;20164;-71
2021/12/30 01:43:30;;;;;;;1.60;0.90;;;12.90;40.90;;;;;;5085891;28;20115;-71
2021/12/30 01:46:00;;;;;;;1.27;0.70;;;12.80;40.90;;;;;;5082390;28;20135;-71
2021/12/30 01:48:28;;;;;;;2.20;1.00;;;12.90;40.60;;;;;;5083412;28;20530;-71
2021/12/30 01:50:56;;;;;;;1.70;0.80;;;12.80;41.50;;;;;;5062564;28;20040;-71
2021/12/30 01:53:25;;;;;;;1.05;0.80;;;12.80;41.80;;;;;;5042058;28;20106;-71
2021/12/30 01:55:54;;;;;;;4.22;1.20;;;12.90;40.10;;;;;;5062387;28;20135;-71
2021/12/30 01:58:22;;;;;;;1.40;0.88;;;12.80;40.60;;;;;;5067223;28;20131;-71
2021/12/30 02:00:51;;;;;;;2.28;1.20;;;12.90;39.60;;;;;;5065670;28;20048;-71
2021/12/30 02:03:22;;;;;;;1.90;0.93;;;12.80;39.90;;;;;;5084029;28;20085;-71
2021/12/30 02:05:51;;;;;;;1.45;0.93;;;12.80;39.50;;;;;;5080494;28;20044;-71
2021/12/30 02:08:20;;;;;;;2.85;1.00;;;12.70;40.30;;;;;;5068393;28;20048;-71
2021/12/30 02:10:50;;;;;;;2.45;1.05;;;12.80;39.50;;;;;;5061487;28;20054;-71
2021/12/30 02:13:19;;;;;;;3.28;1.00;;;12.70;39.40;;;;;;5065211;28;20049;-71
2021/12/30 02:15:48;;;;;;;2.35;1.05;;;12.70;39.40;;;;;;5064931;28;20055;-71
2021/12/30 02:18:23;;;;;;;3.08;0.75;;;12.70;39.40;;;;;;5081042;28;20515;-71
2021/12/30 02:20:58;;;;;;;1.20;0.88;;;12.70;38.70;;;;;;5081355;28;20052;-72
2021/12/30 02:23:28;;;;;;;1.50;0.77;;;12.70;39.20;;;;;;5085561;28;20058;-71
2021/12/30 02:25:58;;;;;;;2.38;0.82;;;12.80;38.40;;;;;;5072450;28;20219;-69
2021/12/30 02:28:31;;;;;;;2.58;0.90;;;12.80;38.20;;;;;;5063756;28;20483;-71
2021/12/30 02:31:06;;;;;;;3.08;0.80;;;12.80;38.70;;;;;;5050588;28;20048;-72
2021/12/30 02:33:38;;;;;;;3.90;1.05;;;12.80;39.00;;;;;;5047337;28;20049;-71
2021/12/30 02:36:08;;;;;;;2.47;0.90;;;12.80;38.00;;;;;;5083817;28;20715;-72
2021/12/30 02:38:37;;;;;;;5.68;1.00;;;12.80;38.50;;;;;;5082565;28;20179;-71
2021/12/30 02:41:05;;;;;;;1.92;0.88;;;12.70;39.40;;;;;;5071337;28;20040;-72
2021/12/30 02:43:33;;;;;;;3.08;1.10;;;12.80;39.50;;;;;;5070622;28;20514;-71
2021/12/30 02:46:03;;;;;;;4.18;0.90;;;12.80;39.50;;;;;;5066611;28;20048;-71
2021/12/30 02:48:38;;;;;;;1.58;0.70;;;13.00;38.60;;;;;;5064669;28;20086;-71
2021/12/30 02:51:11;;;;;;;1.65;0.80;;;12.90;38.70;;;;;;5085402;28;20087;-71
2021/12/30 02:53:43;;;;;;;1.30;0.75;;;12.90;39.60;;;;;;5086250;28;20112;-72
2021/12/30 02:56:13;;;;;;;5.22;1.25;;;13.00;39.70;;;;;;5076885;28;20037;-72
2021/12/30 02:58:40;;;;;;;3.53;0.90;;;12.90;39.70;;;;;;5066010;28;20063;-72
2021/12/30 03:01:11;;;;;;;1.23;0.70;;;12.90;40.50;;;;;;5061064;28;20123;-72
2021/12/30 03:03:40;;;;;;;2.78;0.82;;;12.90;39.90;;;;;;5067960;28;20102;-70
2021/12/30 03:06:12;;;;;;;1.80;0.70;;;12.90;40.60;;;;;;5066802;28;20507;-71
2021/12/30 03:08:43;;;;;;;1.80;1.02;;;12.90;40.40;;;;;;5065531;28;20036;-71
2021/12/30 03:11:11;;;;;;;2.42;0.80;;;12.90;40.40;;;;;;5066749;28;20155;-71
2021/12/30 03:13:42;;;;;;;1.25;0.60;;;13.00;39.70;;;;;;5069657;28;20040;-71
2021/12/30 03:16:13;;;;;;;1.13;0.50;;;13.00;39.70;;;;;;5067310;28;20040;-71
2021/12/30 03:18:44;;;;;;;1.65;0.75;;;12.90;40.80;;;;;;5027968;28;20052;-71
2021/12/30 03:21:17;;;;;;;2.72;0.85;;;13.00;41.20;;;;;;5067240;28;20123;-71
2021/12/30 03:23:45;;;;;;;3.15;0.70;;;13.00;41.10;;;;;;5090229;28;20548;-71
2021/12/30 03:26:18;;;;;;;1.88;1.08;;;13.10;40.60;;;;;;5071227;28;20045;-71
2021/12/30 03:28:47;;;;;;;0.90;0.68;;;12.90;40.90;;;;;;5066972;28;20052;-71
2021/12/30 03:31:18;;;;;;;1.13;0.63;;;13.00;40.90;;;;;;5069459;28;20046;-72
2021/12/30 03:33:46;;;;;;;2.10;1.02;;;13.00;40.00;;;;;;5069387;28;20052;-71
2021/12/30 03:36:19;;;;;;;1.00;0.60;;;12.90;41.40;;;;;;5067089;28;20533;-71
2021/12/30 03:38:49;;;;;;;1.00;0.63;;;12.90;42.20;;;;;;5067919;28;20145;-71
2021/12/30 03:41:20;;;;;;;1.45;0.80;;;12.90;42.20;;;;;;5066701;28;20049;-71
2021/12/30 03:43:52;;;;;;;1.67;0.77;;;13.00;42.30;;;;;;5068747;28;20156;-72
2021/12/30 03:46:20;;;;;;;1.77;0.73;;;13.00;41.30;;;;;;5074228;28;20093;-71
2021/12/30 03:48:49;;;;;;;1.48;0.50;;;13.00;41.90;;;;;;5081496;28;20045;-71
2021/12/30 03:51:24;;;;;;;2.60;0.70;;;13.00;41.90;;;;;;5067690;28;20550;-71
2021/12/30 03:53:55;;;;;;;1.02;0.55;;;13.10;41.50;;;;;;5069936;28;20423;-71
2021/12/30 03:56:30;;;;;;;0.90;0.70;;;13.00;41.20;;;;;;5084585;28;20035;-71
2021/12/30 03:58:58;;;;;;;1.33;0.70;;;13.10;41.20;;;;;;5087552;28;20175;-71
2021/12/30 04:01:28;;;;;;;3.85;0.63;;;13.00;41.60;;;;;;5085683;28;20051;-71
2021/12/30 04:03:56;;;;;;;2.17;0.60;;;13.10;42.20;;;;;;5069754;28;20115;-71
2021/12/30 04:06:27;;;;;;;1.48;0.68;;;13.10;41.70;;;;;;5066719;28;20044;-70
2021/12/30 04:08:56;;;;;;;1.77;0.75;;;13.10;42.40;;;;;;5067311;28;20078;-71
2021/12/30 04:11:25;;;;;;;4.72;1.20;;;13.20;41.50;;;;;;5084536;28;20074;-71
2021/12/30 04:13:54;;;;;;;1.02;0.60;;;13.20;42.40;;;;;;5077469;28;20062;-70
2021/12/30 04:16:22;;;;;;;1.92;0.80;;;13.10;42.70;;;;;;5072633;28;20036;-70
2021/12/30 04:18:51;;;;;;;2.35;0.93;;;13.10;43.70;;;;;;5086898;28;20056;-70
2021/12/30 04:21:21;;;;;;;0.80;0.50;;;13.10;43.70;;;;;;5086751;28;20434;-71
2021/12/30 04:23:53;;;;;;;1.83;0.60;;;13.10;44.40;;;;;;5089909;28;20127;-71
2021/12/30 04:26:27;;;;;;;1.50;0.50;;;13.10;46.00;;;;;;5067351;28;20064;-70
2021/12/30 04:28:56;;;;;;;1.08;0.50;;;13.00;47.10;;;;;;5067668;28;20056;-70
2021/12/30 04:31:24;;;;;;;1.25;0.60;;;13.00;48.90;;;;;;5066787;28;20040;-70
2021/12/30 04:33:54;;;;;;;2.55;0.70;;;12.90;50.80;;;;;;5068589;28;20048;-71
2021/12/30 04:36:21;;;;;;;2.35;0.63;;;12.90;52.40;;;;;;5065404;28;20036;-71
2021/12/30 04:38:49;;;;;;;1.05;0.60;;;12.80;53.90;;;;;;5065550;28;20048;-71
2021/12/30 04:41:22;;;;;;;3.08;0.80;;;12.80;55.30;;;;;;5074698;28;20527;-71
2021/12/30 04:43:53;;;;;;;2.28;1.00;;;12.70;56.20;;;;;;5066743;28;20048;-70
2021/12/30 04:46:21;;;;;;;2.33;0.70;;;12.70;57.60;;;;;;5065931;28;20468;-70
2021/12/30 04:48:53;;;;;;;1.50;0.60;;;12.60;58.50;;;;;;5069759;28;20059;-69
2021/12/30 04:51:21;;;;;;;1.17;0.60;;;12.60;59.70;;;;;;5085764;28;20513;-71
2021/12/30 04:53:52;;;;;;;3.63;1.13;;;12.50;60.00;;;;;;5069528;28;20052;-71
2021/12/30 04:56:21;;;;;;;1.48;0.70;;;12.40;60.80;;;;;;5065650;28;20056;-69
2021/12/30 04:58:49;;;;;;;3.45;0.90;;;12.40;62.10;;;;;;5067986;28;20047;-71
2021/12/30 05:01:17;;;;;;;1.52;0.75;;;12.30;63.70;;;;;;5065414;28;20095;-70
2021/12/30 05:03:46;;;;;;;2.05;0.90;;;12.30;64.10;;;;;;5067272;28;20040;-72
2021/12/30 05:06:14;;;;;;;2.70;0.90;;;12.30;64.10;;;;;;5066306;28;20063;-71
2021/12/30 05:08:42;;;;;;;4.97;0.82;;;12.30;64.80;;;;;;5064805;28;20040;-70
2021/12/30 05:11:10;;;;;;;10.15;1.08;;;12.30;64.80;;;;;;5064212;28;20133;-71
2021/12/30 05:13:40;;;;;;;1.75;0.70;;;12.30;65.50;;;;;;5067827;28;20091;-71
2021/12/30 05:16:08;;;;;;;2.22;0.80;;;12.30;65.50;;;;;;5062249;28;21315;-70
2021/12/30 05:18:37;;;;;;;4.13;0.80;;;12.20;65.70;;;;;;5063735;28;20495;-71
2021/12/30 05:21:06;;;;;;;1.20;0.80;;;12.20;66.00;;;;;;5065973;28;20076;-70
2021/12/30 05:23:35;;;;;;;2.67;0.77;;;12.20;65.90;;;;;;5086622;28;20131;-71
2021/12/30 05:26:04;;;;;;;1.85;0.60;;;12.20;66.00;;;;;;5070160;28;20075;-71
2021/12/30 05:28:33;;;;;;;2.45;1.00;;;12.10;65.80;;;;;;5064189;28;20064;-71
2021/12/30 05:31:02;;;;;;;3.13;1.10;;;12.10;65.90;;;;;;5062700;28;20044;-71
2021/12/30 05:33:30;;;;;;;2.78;0.70;;;12.10;66.40;;;;;;5065954;28;20496;-71
2021/12/30 05:35:59;;;;;;;2.47;0.70;;;12.20;66.80;;;;;;5063876;28;20606;-70
2021/12/30 05:38:27;;;;;;;0.93;0.60;;;12.20;66.60;;;;;;5064585;28;20036;-70
2021/12/30 05:40:56;;;;;;;5.13;2.63;;;12.20;66.30;;;;;;5064598;28;20045;-71
2021/12/30 05:43:24;;;;;;;1.45;0.70;;;12.20;65.90;;;;;;5063502;28;20558;-71
2021/12/30 05:45:51;;;;;;;2.67;0.40;;;12.20;65.70;;;;;;5066176;28;20061;-71
2021/12/30 05:48:21;;;;;;;2.80;0.57;;;12.20;65.50;;;;;;5063621;28;20041;-71
2021/12/30 05:50:49;;;;;;;1.40;0.82;;;12.20;64.70;;;;;;5065661;28;20044;-71
2021/12/30 05:53:17;;;;;;;1.52;0.60;;;12.20;65.00;;;;;;5067181;28;20043;-71
2021/12/30 05:55:45;;;;;;;1.55;0.40;;;12.20;64.60;;;;;;5065109;28;20055;-70
2021/12/30 05:58:13;;;;;;;2.42;0.50;;;12.30;63.80;;;;;;5063513;28;20045;-71
2021/12/30 06:00:42;;;;;;;2.08;0.60;;;12.30;63.30;;;;;;5064023;28;20570;-71
2021/12/30 06:03:10;;;;;;;3.45;0.40;;;12.30;63.00;;;;;;5067315;28;20591;-70
2021/12/30 06:05:40;;;;;;;0.68;0.50;;;12.30;62.90;;;;;;5065845;28;20055;-69
2021/12/30 06:08:08;;;;;;;0.70;0.47;;;12.30;63.50;;;;;;5063061;28;20747;-70
2021/12/30 06:10:37;;;;;;;2.53;0.70;;;12.20;63.60;;;;;;5074949;28;21206;-71
2021/12/30 06:13:06;;;;;;;1.05;0.65;;;12.20;64.00;;;;;;5086600;28;20557;-72
2021/12/30 06:15:33;;;;;;;1.05;0.80;;;12.20;64.50;;;;;;5072172;28;20064;-70
2021/12/30 06:18:02;;;;;;;0.85;0.60;;;12.20;65.00;;;;;;5068598;28;20056;-70
2021/12/30 06:20:30;;;;;;;2.55;0.60;;;12.20;65.30;;;;;;5086672;28;20414;-70
2021/12/30 06:23:02;;;;;;;1.17;0.60;;;12.10;65.80;;;;;;5076552;28;20037;-70
2021/12/30 06:25:30;;;;;;;2.08;0.68;;;12.10;66.10;;;;;;5079343;28;20125;-70
2021/12/30 06:27:58;;;;;;;0.63;0.50;;;12.10;66.30;;;;;;5087726;28;20075;-69
2021/12/30 06:30:26;;;;;;;2.55;0.52;;;12.10;66.90;;;;;;5087194;28;20048;-71
2021/12/30 06:32:54;;;;;;;2.55;0.40;;;12.10;67.30;;;;;;5071011;28;20139;-71
2021/12/30 06:35:22;;;;;;;1.25;0.55;;;12.10;67.10;;;;;;5073804;28;20512;-71
2021/12/30 06:37:50;;;;;;;0.47;0.47;;;12.10;67.50;;;;;;5064993;28;20407;-71
2021/12/30 06:40:20;;;;;;;1.05;0.47;;;12.10;67.50;;;;;;5067795;28;20143;-70
2021/12/30 06:42:48;;;;;;;4.45;1.00;;;12.10;67.60;;;;;;5068064;28;20051;-70
2021/12/30 06:45:15;;;;;;;2.92;0.90;;;12.10;67.70;;;;;;5069712;28;20051;-70
2021/12/30 06:47:45;;;;;;;3.20;0.75;;;12.10;67.90;;;;;;5067196;28;20057;-71
2021/12/30 06:50:14;;;;;;;1.58;0.70;;;12.10;68.10;;;;;;5067612;28;20510;-70
2021/12/30 06:52:46;;;;;;;2.78;1.05;;;12.10;68.60;;;;;;5069773;28;20427;-69
2021/12/30 06:55:14;;;;;;;0.70;0.50;;;12.10;68.90;;;;;;5068831;28;20120;-70
2021/12/30 06:57:44;;;;;;;2.42;0.55;;;12.10;68.90;;;;;;5066933;28;20063;-70
2021/12/30 07:00:13;;;;;;;1.98;0.73;;;12.20;69.20;;;;;;5067791;28;20173;-71
2021/12/30 07:02:42;;;;;;;1.98;0.70;;;12.20;69.00;;;;;;5070254;28;20431;-71
2021/12/30 07:05:13;;;;;;;1.13;0.70;;;12.20;68.90;;;;;;5069677;28;20048;-71
2021/12/30 07:07:41;;;;;;;1.52;0.50;;;12.20;68.80;;;;;;5069139;28;20056;-71
2021/12/30 07:10:10;;;;;;;0.77;0.55;;;12.20;68.50;;;;;;5067122;28;20129;-71
2021/12/30 07:12:38;;;;;;;1.27;0.50;;;12.20;68.30;;;;;;5068087;28;20118;-71
2021/12/30 07:15:09;;;;;;;4.50;0.52;;;12.30;68.50;;;;;;5068379;28;20068;-71
2021/12/30 07:17:37;;;;;;;1.83;0.50;;;12.30;67.90;;;;;;5066032;28;20044;-71
2021/12/30 07:20:08;;;;;;;0.77;0.60;;;12.30;68.00;;;;;;5066341;28;20048;-71
2021/12/30 07:22:39;;;;;;;1.38;0.60;;;12.30;67.90;;;;;;5068730;28;20044;-70
2021/12/30 07:25:16;;;;;;;1.38;0.68;;;12.30;68.50;;;;;;5068726;28;20044;-70
2021/12/30 07:27:44;;;;;;;1.15;0.60;;;12.30;68.40;;;;;;5063908;28;20496;-71
2021/12/30 07:30:15;;;;;;;0.80;0.60;;;12.30;68.30;;;;;;5068208;28;20032;-71
2021/12/30 07:32:43;;;;;;;1.10;0.60;;;12.30;68.90;;;;;;5068359;28;20044;-71
2021/12/30 07:35:11;;;;;;;1.90;1.10;;;12.40;69.20;;;;;;5067422;28;20125;-71
2021/12/30 07:37:39;;;;;;;1.52;0.55;;;12.40;69.00;;;;;;5066413;28;20052;-72
2021/12/30 07:40:08;;;;;;;0.80;0.70;;;12.40;69.00;;;;;;5066876;28;20524;-71
2021/12/30 07:42:40;;;;;;;2.97;0.70;;;12.40;69.10;;;;;;5066497;28;20074;-71
2021/12/30 07:45:09;;;;;;;1.10;0.55;;;12.40;68.80;;;;;;5069863;28;20392;-70
2021/12/30 07:47:39;;;;;;;1.50;0.50;;;12.40;68.80;;;;;;5065369;28;20049;-72
2021/12/30 07:50:09;;;;;;;5.00;0.82;;;12.40;68.80;;;;;;5065822;28;20585;-71
2021/12/30 07:52:37;;;;;;;3.55;0.50;;;12.40;68.80;;;;;;5069948;28;20123;-72
2021/12/30 07:55:07;;;;;;;3.17;0.82;;;12.40;68.90;;;;;;5068786;28;20087;-71
2021/12/30 07:57:36;;;;;;;1.05;0.40;;;12.40;68.40;;;;;;5064702;28;20121;-72
2021/12/30 08:00:07;;;;;;;1.00;0.57;;;12.50;68.10;;;;;;5066970;28;20044;-72
2021/12/30 08:02:38;;;;;;;1.90;0.60;;;12.50;68.10;;;;;;5068292;28;20114;-71
2021/12/30 08:05:06;;;;;;;0.63;0.50;;;12.50;68.00;;;;;;5065850;28;20064;-72
2021/12/30 08:07:37;;;;;;;0.80;0.60;;;12.50;68.00;;;;;;5066752;28;20055;-72
2021/12/30 08:10:10;;;;;;;0.75;0.60;;;12.60;68.10;;;;;;5065712;28;20634;-72
2021/12/30 08:12:39;;;;;;;1.77;0.55;;;12.60;68.00;;;;;;5067611;28;20063;-72
2021/12/30 08:15:08;;;;;;;1.13;0.80;;;12.60;67.90;;;;;;5068114;28;20059;-71
2021/12/30 08:17:38;;;;;;;1.45;0.70;;;12.60;67.70;;;;;;5064891;28;20047;-71
2021/12/30 08:20:09;;;;;;;1.20;0.73;;;12.60;67.50;;;;;;5064192;28;20105;-71
2021/12/30 08:22:38;;;;;;;0.45;0.45;;;12.60;67.50;;;;;;5067774;28;20045;-71
2021/12/30 08:25:07;;;;;;;7.70;4.22;;;12.60;67.50;;;;;;5067789;28;20431;-71
2021/12/30 08:27:36;;;;;;;2.10;0.70;;;12.70;67.40;;;;;;5061113;28;20127;-72
2021/12/30 08:30:07;;;;;;;1.90;0.70;;;12.70;66.70;;;;;;5066734;28;20084;-71
2021/12/30 08:32:35;;;;;;;1.33;0.55;;;12.70;66.70;;;;;;5065954;28;20052;-71
2021/12/30 08:35:05;;;;;;;0.82;0.50;;;12.70;66.50;;;;;;5067874;28;20491;-71
2021/12/30 08:37:34;;;;;;;1.05;0.73;;;12.70;66.70;;;;;;5064208;28;20562;-72
2021/12/30 08:40:07;;;;;;;1.48;0.63;;;12.70;66.40;;;;;;5065086;28;20066;-71
2021/12/30 08:42:35;;;;;;;0.82;0.60;;;12.70;66.10;;;;;;5064424;28;20044;-72
2021/12/30 08:45:05;;;;;;;0.65;0.52;;;12.80;65.60;;;;;;5068475;28;20048;-71
2021/12/30 08:47:33;;;;;;;2.85;0.73;;;12.80;64.80;;;;;;5065606;28;20044;-72
2021/12/30 08:50:02;;;;;;;0.90;0.60;;;12.80;64.10;;;;;;5063968;28;20045;-73
2021/12/30 08:52:31;;;;;;;1.10;0.85;;;12.90;62.30;;;;;;5068745;28;20053;-72
2021/12/30 08:55:04;;;;;;;1.52;0.70;;;12.90;62.60;;;;;;5066949;28;20065;-71
2021/12/30 08:57:53;;;;;;;2.60;0.95;;;13.00;61.80;;;;;;5064106;28;20048;-72
2021/12/30 09:00:24;;;;;;;2.13;1.02;;;13.10;61.00;;;;;;5065819;28;20036;-72
2021/12/30 09:02:53;;;;;;;1.90;0.70;;;13.10;59.90;;;;;;5065099;28;20129;-72
2021/12/30 09:05:23;;;;;;;2.80;0.60;;;13.20;59.70;;;;;;5063825;28;20511;-72
2021/12/30 09:07:54;;;;;;;1.77;0.80;;;13.20;58.40;;;;;;5063603;28;20046;-71
2021/12/30 09:10:25;;;;;;;0.80;0.60;;;13.30;57.80;;;;;;5065420;28;20041;-72
2021/12/30 09:12:54;;;;;;;3.50;0.90;;;13.30;58.30;;;;;;5066377;28;20489;-72
2021/12/30 09:15:25;;;;;;;2.03;1.00;;;13.30;57.90;;;;;;5066995;28;20036;-72
2021/12/30 09:17:58;;;;;;;1.88;1.30;;;13.30;57.70;;;;;;5064637;28;20056;-72
2021/12/30 09:20:26;;;;;;;6.85;1.20;;;13.30;57.70;;;;;;5064782;28;20037;-73
2021/12/30 09:22:59;;;;;;;3.83;0.93;;;13.40;58.00;;;;;;5067678;28;20127;-71
2021/12/30 09:25:27;;;;;;;1.75;0.85;;;13.40;58.20;;;;;;5067611;28;20507;-72
2021/12/30 09:27:56;;;;;;;2.47;0.93;;;13.50;58.30;;;;;;5062737;28;20048;-73
2021/12/30 09:30:26;;;;;;;3.85;0.60;;;13.50;57.80;;;;;;5064796;28;20042;-72
2021/12/30 09:32:57;;;;;;;4.30;1.13;;;13.50;56.80;;;;;;5068549;28;20056;-72
2021/12/30 09:35:25;;;;;;;1.90;1.10;;;13.50;56.60;;;;;;5066633;28;20043;-72
2021/12/30 09:37:54;;;;;;;1.25;0.90;;;13.50;56.80;;;;;;5063561;28;20526;-72
2021/12/30 09:40:24;;;;;;;1.63;0.70;;;13.60;56.90;;;;;;5062713;28;20151;-72
2021/12/30 09:43:00;;;;;;;0.90;0.60;;;13.60;57.20;;;;;;5068306;28;20063;-72
2021/12/30 09:45:31;;;;;;;1.30;0.80;;;13.70;56.80;;;;;;5064562;28;20215;-75
2021/12/30 09:48:04;;;;;;;22.83;15.88;;;13.70;56.80;;;;;;5064639;28;20071;-72
2021/12/30 09:50:35;;;;;;;1.58;1.08;;;13.80;55.30;;;;;;5064456;28;20040;-72
2021/12/30 09:53:03;;;;;;;0.98;0.55;;;13.90;54.80;;;;;;5067101;28;20464;-71
2021/12/30 09:55:33;;;;;;;1.10;0.60;;;14.00;53.60;;;;;;5067567;28;20491;-73
2021/12/30 09:58:01;;;;;;;3.42;0.68;;;14.00;53.00;;;;;;5063224;28;20045;-72
2021/12/30 10:00:30;;;;;;;1.60;0.60;;;14.10;51.90;;;;;;5062618;28;20056;-71
2021/12/30 10:02:59;;;;;;;3.28;0.50;;;14.10;50.60;;;;;;5071262;28;20044;-72
2021/12/30 10:05:31;;;;;;;2.88;0.57;;;14.20;50.00;;;;;;5066607;28;20185;-71
2021/12/30 10:08:11;;;;;;;1.10;0.57;;;14.20;49.80;;;;;;5064576;28;20040;-72
2021/12/30 10:10:42;;;;;;;3.30;0.60;;;14.30;48.30;;;;;;5063718;28;20067;-72
2021/12/30 10:13:23;;;;;;;0.77;0.57;;;14.30;47.60;;;;;;5066576;28;20428;-71
2021/12/30 10:15:53;;;;;;;1.60;0.60;;;14.40;46.60;;;;;;5064886;28;20053;-71
2021/12/30 10:18:23;;;;;;;0.95;0.65;;;14.40;46.80;;;;;;5065268;28;20372;-73
2021/12/30 10:20:53;;;;;;;0.80;0.50;;;14.40;46.50;;;;;;5083213;28;20052;-73
2021/12/30 10:23:24;;;;;;;0.93;0.50;;;14.40;47.10;;;;;;5068663;28;20214;-71
2021/12/30 10:26:00;;;;;;;1.90;1.20;;;14.40;47.00;;;;;;5065030;28;20338;-72
2021/12/30 10:28:33;;;;;;;1.73;0.70;;;14.50;47.40;;;;;;5063989;28;20063;-71
2021/12/30 10:31:17;;;;;;;1.08;0.50;;;14.50;47.00;;;;;;5053988;28;20130;-71
2021/12/30 10:33:54;;;;;;;1.95;0.80;;;14.60;47.50;;;;;;5065886;28;20052;-72
2021/12/30 10:36:25;;;;;;;14.63;10.73;;;14.60;46.60;;;;;;5064650;28;20492;-72
2021/12/30 10:39:15;;;;;;;4.10;1.95;;;14.70;45.60;;;;;;5064317;28;20049;-71
2021/12/30 10:41:45;;;;;;;4.07;1.90;;;14.80;45.90;;;;;;5058627;28;20049;-72
2021/12/30 10:44:13;;;;;;;6.68;4.50;;;14.90;44.30;;;;;;5081633;28;20141;-72
2021/12/30 10:46:42;;;;;;;3.72;2.53;;;14.90;44.20;;;;;;5065230;28;20075;-72
2021/12/30 10:49:11;;;;;;;3.60;0.65;;;15.00;43.70;;;;;;5062892;28;20041;-71
2021/12/30 10:51:44;;;;;;;1.65;0.50;;;15.00;42.20;;;;;;5065019;28;20048;-72
2021/12/30 10:54:19;;;;;;;1.70;0.35;;;15.00;39.50;;;;;;5067241;28;20067;-70
2021/12/30 10:56:54;;;;;;;1.60;0.93;;;15.20;37.20;;;;;;5065520;28;20051;-72
2021/12/30 10:59:25;;;;;;;1.45;0.60;;;15.20;35.80;;;;;;5063880;28;20072;-72
2021/12/30 11:01:57;;;;;;;1.00;0.65;;;15.20;33.20;;;;;;5065026;28;20045;-71
2021/12/30 11:04:36;;;;;;;1.77;0.30;;;15.20;33.10;;;;;;5075666;28;20047;-72
2021/12/30 11:07:04;;;;;;;0.85;0.40;;;15.20;31.60;;;;;;5080090;28;20555;-72
2021/12/30 11:09:33;;;;;;;0.60;0.30;;;15.30;31.00;;;;;;5068972;28;20684;-70
2021/12/30 11:12:05;;;;;;;1.00;0.50;;;15.40;30.40;;;;;;5068109;28;20615;-71
2021/12/30 11:14:41;;;;;;;0.60;0.30;;;15.40;29.60;;;;;;5070060;28;20090;-72
2021/12/30 11:17:15;;;;;;;0.93;0.20;;;15.40;29.50;;;;;;5066453;28;20056;-71
2021/12/30 11:19:53;;;;;;;0.50;0.38;;;15.40;28.20;;;;;;5066508;28;20048;-72
2021/12/30 11:22:24;;;;;;;0.50;0.22;;;15.50;28.50;;;;;;5068627;28;20423;-72
2021/12/30 11:24:55;;;;;;;1.60;0.50;;;15.50;28.80;;;;;;5069262;28;20072;-71
2021/12/30 11:27:28;;;;;;;2.67;0.40;;;15.50;27.30;;;;;;5067940;28;20123;-72
2021/12/30 11:29:58;;;;;;;2.85;1.30;;;15.50;26.90;;;;;;5066439;28;20082;-72
2021/12/30 11:32:30;;;;;;;0.30;0.30;;;15.50;27.50;;;;;;5068622;28;20127;-72
2021/12/30 11:34:59;;;;;;;0.40;0.30;;;15.50;27.40;;;;;;5083013;28;20124;-73
2021/12/30 11:37:27;;;;;;;0.75;0.40;;;15.50;26.50;;;;;;5077120;28;20037;-72
2021/12/30 11:39:57;;;;;;;0.95;0.30;;;15.50;27.40;;;;;;5065357;28;20119;-71
2021/12/30 11:42:36;;;;;;;0.47;0.20;;;15.60;25.90;;;;;;5078094;28;20040;-72
2021/12/30 11:45:22;;;;;;;0.75;0.30;;;15.60;25.90;;;;;;5066988;28;20055;-71
2021/12/30 11:47:51;;;;;;;3.13;0.45;;;15.70;25.40;;;;;;5067326;28;20131;-71
2021/12/30 11:50:30;;;;;;;1.23;0.90;;;15.70;26.10;;;;;;5063255;28;20466;-72
2021/12/30 11:53:05;;;;;;;0.75;0.20;;;15.70;24.70;;;;;;5067906;28;20052;-72
2021/12/30 11:55:48;;;;;;;0.80;0.28;;;15.80;24.90;;;;;;5068135;28;20144;-71
2021/12/30 11:58:41;;;;;;;1.42;0.63;;;15.80;24.20;;;;;;5067437;28;20049;-71
2021/12/30 12:01:40;;;;;;;2.70;0.50;;;15.80;25.40;;;;;;5063300;28;20044;-72
2021/12/30 12:04:16;;;;;;;0.25;0.20;;;15.80;25.10;;;;;;5067618;28;20308;-71
2021/12/30 12:07:03;;;;;;;1.60;0.60;;;15.80;24.20;;;;;;5066978;28;20119;-72
2021/12/30 12:09:42;;;;;;;0.60;0.40;;;15.70;25.20;;;;;;5065244;28;20052;-71
2021/12/30 12:12:14;;;;;;;1.85;0.60;;;15.70;24.50;;;;;;5066120;28;20052;-71
2021/12/30 12:14:56;;;;;;;1.00;0.52;;;15.80;24.70;;;;;;5066996;28;20048;-72
2021/12/30 12:17:37;;;;;;;0.55;0.35;;;15.80;24.20;;;;;;5066167;28;20036;-71
2021/12/30 12:20:21;;;;;;;0.32;0.30;;;15.80;24.20;;;;;;5064811;28;20045;-72
2021/12/30 12:22:50;;;;;;;0.70;0.30;;;15.80;23.60;;;;;;5067941;28;20044;-72
2021/12/30 12:25:22;;;;;;;0.45;0.30;;;15.70;24.20;;;;;;5066790;28;20072;-71
2021/12/30 12:27:53;;;;;;;0.93;0.40;;;15.70;23.50;;;;;;5066149;28;20055;-71
2021/12/30 12:30:26;;;;;;;1.05;0.50;;;15.70;24.70;;;;;;5062648;28;20040;-72
2021/12/30 12:32:54;;;;;;;0.60;0.30;;;15.50;24.40;;;;;;5064753;28;20530;-72
2021/12/30 12:35:32;;;;;;;0.47;0.20;;;15.50;25.00;;;;;;5065137;28;20044;-71
2021/12/30 12:38:02;;;;;;;1.13;0.50;;;15.50;24.70;;;;;;5065332;28;20155;-71
2021/12/30 12:40:34;;;;;;;0.52;0.10;;;15.50;25.80;;;;;;5062119;28;20045;-70
2021/12/30 12:43:09;;;;;;;0.28;0.20;;;15.40;25.70;;;;;;5065250;28;20048;-71
2021/12/30 12:45:41;;;;;;;0.90;0.30;;;15.40;25.80;;;;;;5067909;28;20037;-71
2021/12/30 12:48:24;;;;;;;0.77;0.30;;;15.50;24.80;;;;;;5063783;28;20049;-72
2021/12/30 12:50:56;;;;;;;3.30;0.60;;;15.60;23.80;;;;;;5063948;28;20082;-70
2021/12/30 12:53:49;;;;;;;1.02;0.40;;;15.60;23.30;;;;;;5066470;28;20124;-71
2021/12/30 12:56:22;;;;;;;0.50;0.40;;;15.70;23.60;;;;;;5065288;28;20040;-71
2021/12/30 12:58:53;;;;;;;0.70;0.32;;;15.70;23.50;;;;;;5064266;28;20456;-72
2021/12/30 13:01:26;;;;;;;1.20;0.73;;;15.70;23.20;;;;;;5073172;28;20151;-72
2021/12/30 13:03:58;;;;;;;0.90;0.27;;;15.60;23.40;;;;;;5087386;28;20062;-71